Time;durP1;ratioP1;P1;durP2;ratioP2;P2;SDS_P1;SDS_P2;PMS_P1;PMS_P2;Temp;Humidity;BMP_temperature;BMP_pressure;BME280_temperature;BME280_humidity;BME280_pressure;Samples;Min_cycle;Max_cycle;Signal;HPM_P1;HPM_P2
2022/02/20 00:01:41;;;;;;;;;;;;;;;;;;5066573;28;19975;-82
2022/02/20 00:04:07;;;;;;;;;;;;;;;;;;5069411;28;19964;-83
2022/02/20 00:06:34;;;;;;;;;;;;;;;;;;5069078;28;19971;-83
2022/02/20 00:09:00;;;;;;;;;;;;;;;;;;5073200;28;20032;-84
2022/02/20 00:11:26;;;;;;;;;;;;;;;;;;5077742;28;19917;-83
2022/02/20 00:13:52;;;;;;;;;;;;;;;;;;5072440;28;19990;-81
2022/02/20 00:16:18;;;;;;;;;;;;;;;;;;5077192;28;19951;-81
2022/02/20 00:18:45;;;;;;;;;;;;;;;;;;5074592;28;19916;-82
2022/02/20 00:21:11;;;;;;;;;;;;;;;;;;5070531;28;19923;-82
2022/02/20 00:23:37;;;;;;;;;;;;;;;;;;5069620;28;19951;-80
2022/02/20 00:26:03;;;;;;;;;;;;;;;;;;5078507;28;19921;-82
2022/02/20 00:28:29;;;;;;;;;;;;;;;;;;5081464;28;20361;-84
2022/02/20 00:30:56;;;;;;;;;;;;;;;;;;5070686;28;19924;-84
2022/02/20 00:33:22;;;;;;;;;;;;;;;;;;5080712;28;19916;-86
2022/02/20 00:35:48;;;;;;;;;;;;;;;;;;5065148;28;19972;-86
2022/02/20 00:38:14;;;;;;;;;;;;;;;;;;5070174;28;20481;-85
2022/02/20 00:40:40;;;;;;;;;;;;;;;;;;5068960;28;19965;-85
2022/02/20 00:43:07;;;;;;;;;;;;;;;;;;5070194;28;19951;-86
2022/02/20 00:45:33;;;;;;;;;;;;;;;;;;5071323;28;19964;-85
2022/02/20 00:47:59;;;;;;;;;;;;;;;;;;5065131;28;20352;-85
2022/02/20 00:50:25;;;;;;;;;;;;;;;;;;5069364;28;19948;-83
2022/02/20 00:52:51;;;;;;;;;;;;;;;;;;5066227;28;20341;-83
2022/02/20 00:55:18;;;;;;;;;;;;;;;;;;5067887;28;19956;-82
2022/02/20 00:57:44;;;;;;;;;;;;;;;;;;5062828;28;19968;-83
2022/02/20 01:00:10;;;;;;;;;;;;;;;;;;5072535;28;19962;-82
2022/02/20 01:02:36;;;;;;;;;;;;;;;;;;5068114;28;20358;-77
2022/02/20 01:05:03;;;;;;;;;;;;;;;;;;5066838;28;19963;-81
2022/02/20 01:07:29;;;;;;;;;;;;;;;;;;5067202;28;19963;-83
2022/02/20 01:09:55;;;;;;;;;;;;;;;;;;5060408;28;20413;-83
2022/02/20 01:12:21;;;;;;;;;;;;;;;;;;5066389;28;19971;-83
2022/02/20 01:14:47;;;;;;;;;;;;;;;;;;5068027;27;19993;-83
2022/02/20 01:17:14;;;;;;;;;;;;;;;;;;5067540;28;19968;-83
2022/02/20 01:19:40;;;;;;;;;;;;;;;;;;5068103;28;20446;-83
2022/02/20 01:22:06;;;;;;;;;;;;;;;;;;5068180;28;19951;-83
2022/02/20 01:24:33;;;;;;;;;;;;;;;;;;5063401;28;20009;-83
2022/02/20 01:26:59;;;;;;;;;;;;;;;;;;5065514;28;19963;-83
2022/02/20 01:29:25;;;;;;;;;;;;;;;;;;5067678;28;19917;-83
2022/02/20 01:31:53;;;;;;;;;;;;;;;;;;5067931;28;19952;-84
2022/02/20 01:34:19;;;;;;;;;;;;;;;;;;5066977;28;20349;-82
2022/02/20 01:36:45;;;;;;;;;;;;;;;;;;5065860;28;20335;-82
2022/02/20 01:39:11;;;;;;;;;;;;;;;;;;5070289;28;19979;-83
2022/02/20 01:41:38;;;;;;;;;;;;;;;;;;5066719;28;20383;-82
2022/02/20 01:44:04;;;;;;;;;;;;;;;;;;5063801;28;20009;-83
2022/02/20 01:46:30;;;;;;;;;;;;;;;;;;5068096;28;19963;-83
2022/02/20 01:48:56;;;;;;;;;;;;;;;;;;5057456;28;20014;-82
2022/02/20 01:51:22;;;;;;;;;;;;;;;;;;5064528;28;19940;-82
2022/02/20 01:53:48;;;;;;;;;;;;;;;;;;5062681;28;19958;-82
2022/02/20 01:56:15;;;;;;;;;;;;;;;;;;5066911;28;20006;-81
2022/02/20 01:58:41;;;;;;;;;;;;;;;;;;5069482;28;19951;-82
2022/02/20 02:01:07;;;;;;;;;;;;;;;;;;5063620;28;20391;-81
2022/02/20 02:03:33;;;;;;;;;;;;;;;;;;5068899;28;19944;-82
2022/02/20 02:05:59;;;;;;;;;;;;;;;;;;5074517;28;19974;-88
2022/02/20 02:08:26;;;;;;;;;;;;;;;;;;5064821;28;19960;-83
2022/02/20 02:10:52;;;;;;;;;;;;;;;;;;5070122;28;19955;-83
2022/02/20 02:13:18;;;;;;;;;;;;;;;;;;5067916;28;19974;-83
2022/02/20 02:15:44;;;;;;;;;;;;;;;;;;5069357;28;19974;-83
2022/02/20 02:18:10;;;;;;;;;;;;;;;;;;5073955;28;20394;-82
2022/02/20 02:20:36;;;;;;;;;;;;;;;;;;5072950;28;19968;-73
2022/02/20 02:23:03;;;;;;;;;;;;;;;;;;5074539;28;20442;-84
2022/02/20 02:25:30;;;;;;;;;;;;;;;;;;5071917;28;20013;-84
2022/02/20 02:27:56;;;;;;;;;;;;;;;;;;5069698;28;20379;-83
2022/02/20 02:30:22;;;;;;;;;;;;;;;;;;5067433;28;19960;-84
2022/02/20 02:32:48;;;;;;;;;;;;;;;;;;5069755;28;20392;-83
2022/02/20 02:35:15;;;;;;;;;;;;;;;;;;5069415;28;19966;-83
2022/02/20 02:37:41;;;;;;;;;;;;;;;;;;5068950;28;20377;-83
2022/02/20 02:40:07;;;;;;;;;;;;;;;;;;5070997;28;19948;-83
2022/02/20 02:42:33;;;;;;;;;;;;;;;;;;5077093;28;20018;-83
2022/02/20 02:45:00;;;;;;;;;;;;;;;;;;5072672;28;20402;-85
2022/02/20 02:47:26;;;;;;;;;;;;;;;;;;5072033;28;20002;-83
2022/02/20 02:49:52;;;;;;;;;;;;;;;;;;5067140;28;19955;-84
2022/02/20 02:52:18;;;;;;;;;;;;;;;;;;5068376;28;20231;-84
2022/02/20 02:54:44;;;;;;;;;;;;;;;;;;5073243;28;19955;-83
2022/02/20 02:57:11;;;;;;;;;;;;;;;;;;5076224;28;19971;-82
2022/02/20 02:59:37;;;;;;;;;;;;;;;;;;5074558;28;19955;-84
2022/02/20 03:02:04;;;;;;;;;;;;;;;;;;5071450;28;20337;-84
2022/02/20 03:04:30;;;;;;;;;;;;;;;;;;5070436;28;19952;-84
2022/02/20 03:06:57;;;;;;;;;;;;;;;;;;5071946;28;19990;-83
2022/02/20 03:09:23;;;;;;;;;;;;;;;;;;5069893;28;19963;-80
2022/02/20 03:11:49;;;;;;;;;;;;;;;;;;5068826;28;20351;-81
2022/02/20 03:14:15;;;;;;;;;;;;;;;;;;5068587;28;19958;-81
2022/02/20 03:16:42;;;;;;;;;;;;;;;;;;5066436;28;19956;-81
2022/02/20 03:19:08;;;;;;;;;;;;;;;;;;5068519;28;19960;-81
2022/02/20 03:21:34;;;;;;;;;;;;;;;;;;5070722;28;20458;-81
2022/02/20 03:24:01;;;;;;;;;;;;;;;;;;5071813;28;19951;-83
2022/02/20 03:26:27;;;;;;;;;;;;;;;;;;5074165;28;19968;-85
2022/02/20 03:28:53;;;;;;;;;;;;;;;;;;5070792;28;19956;-85
2022/02/20 03:31:19;;;;;;;;;;;;;;;;;;5071947;28;19993;-83
2022/02/20 03:33:45;;;;;;;;;;;;;;;;;;5071536;28;19959;-86
2022/02/20 03:36:12;;;;;;;;;;;;;;;;;;5067940;27;19951;-86
2022/02/20 03:38:39;;;;;;;;;;;;;;;;;;5067648;28;19960;-83
2022/02/20 03:41:05;;;;;;;;;;;;;;;;;;5068025;27;19940;-85
2022/02/20 03:43:31;;;;;;;;;;;;;;;;;;5072863;28;19939;-85
2022/02/20 03:45:57;;;;;;;;;;;;;;;;;;5075308;28;19991;-85
2022/02/20 03:48:24;;;;;;;;;;;;;;;;;;5069600;28;19963;-84
2022/02/20 03:50:50;;;;;;;;;;;;;;;;;;5066981;28;19974;-83
2022/02/20 03:53:16;;;;;;;;;;;;;;;;;;5065397;28;19974;-83
2022/02/20 03:55:42;;;;;;;;;;;;;;;;;;5063745;28;19956;-79
2022/02/20 03:58:08;;;;;;;;;;;;;;;;;;5069389;28;20336;-83
2022/02/20 04:00:34;;;;;;;;;;;;;;;;;;5074342;28;19952;-81
2022/02/20 04:03:01;;;;;;;;;;;;;;;;;;5066605;28;20544;-82
2022/02/20 04:05:27;;;;;;;;;;;;;;;;;;5065737;28;19967;-82
2022/02/20 04:07:53;;;;;;;;;;;;;;;;;;5070686;28;20387;-83
2022/02/20 04:10:19;;;;;;;;;;;;;;;;;;5069757;28;19967;-83
2022/02/20 04:12:46;;;;;;;;;;;;;;;;;;5066403;28;20522;-85
2022/02/20 04:15:12;;;;;;;;;;;;;;;;;;5066919;28;19940;-84
2022/02/20 04:17:38;;;;;;;;;;;;;;;;;;5064088;28;19956;-83
2022/02/20 04:20:04;;;;;;;;;;;;;;;;;;5070207;28;19969;-83
2022/02/20 04:22:30;;;;;;;;;;;;;;;;;;5070341;28;19955;-84
2022/02/20 04:24:57;;;;;;;;;;;;;;;;;;5069097;28;20034;-84
2022/02/20 04:27:23;;;;;;;;;;;;;;;;;;5069462;28;19956;-84
2022/02/20 04:29:49;;;;;;;;;;;;;;;;;;5069874;28;20372;-83
2022/02/20 04:32:15;;;;;;;;;;;;;;;;;;5063001;28;19958;-83
2022/02/20 04:34:41;;;;;;;;;;;;;;;;;;5067477;28;19952;-83
2022/02/20 04:37:07;;;;;;;;;;;;;;;;;;5069531;28;19978;-84
2022/02/20 04:39:34;;;;;;;;;;;;;;;;;;5072056;28;20390;-84
2022/02/20 04:42:00;;;;;;;;;;;;;;;;;;5065110;28;19960;-85
2022/02/20 04:44:26;;;;;;;;;;;;;;;;;;5072583;28;19960;-84
2022/02/20 04:46:53;;;;;;;;;;;;;;;;;;5067586;28;19970;-86
2022/02/20 04:49:19;;;;;;;;;;;;;;;;;;5068610;28;19916;-85
2022/02/20 04:51:45;;;;;;;;;;;;;;;;;;5069454;28;19967;-85
2022/02/20 04:54:11;;;;;;;;;;;;;;;;;;5067742;28;19948;-84
2022/02/20 04:56:37;;;;;;;;;;;;;;;;;;5061483;28;19967;-79
2022/02/20 04:59:04;;;;;;;;;;;;;;;;;;5068722;28;19916;-84
2022/02/20 05:01:30;;;;;;;;;;;;;;;;;;5063877;28;19959;-86
2022/02/20 05:03:56;;;;;;;;;;;;;;;;;;5067628;28;19959;-87
2022/02/20 05:06:27;;;;;;;;;;;;;;;;;;5071262;28;19928;-86
2022/02/20 05:08:53;;;;;;;;;;;;;;;;;;5069600;28;19966;-86
2022/02/20 05:11:20;;;;;;;;;;;;;;;;;;5070528;28;20482;-86
2022/02/20 05:13:46;;;;;;;;;;;;;;;;;;5067533;28;19956;-81
2022/02/20 05:16:12;;;;;;;;;;;;;;;;;;5062447;28;19956;-79
2022/02/20 05:18:38;;;;;;;;;;;;;;;;;;5068118;28;20073;-84
2022/02/20 05:21:07;;;;;;;;;;;;;;;;;;5069357;28;20313;-83
2022/02/20 05:23:33;;;;;;;;;;;;;;;;;;5067518;28;20661;-86
2022/02/20 05:25:59;;;;;;;;;;;;;;;;;;5064096;28;19979;-86
2022/02/20 05:28:25;;;;;;;;;;;;;;;;;;5069023;28;19958;-85
2022/02/20 05:30:52;;;;;;;;;;;;;;;;;;5065511;28;19947;-87
2022/02/20 05:33:18;;;;;;;;;;;;;;;;;;5070150;28;19921;-85
2022/02/20 05:35:44;;;;;;;;;;;;;;;;;;5064659;28;20334;-84
2022/02/20 05:38:11;;;;;;;;;;;;;;;;;;5072384;28;19947;-84
2022/02/20 05:40:37;;;;;;;;;;;;;;;;;;5069204;28;20328;-83
2022/02/20 05:43:04;;;;;;;;;;;;;;;;;;5065336;28;19963;-83
2022/02/20 05:45:30;;;;;;;;;;;;;;;;;;5066354;28;19952;-80
2022/02/20 05:47:56;;;;;;;;;;;;;;;;;;5062529;28;19976;-82
2022/02/20 05:50:22;;;;;;;;;;;;;;;;;;5066775;28;19955;-82
2022/02/20 05:52:48;;;;;;;;;;;;;;;;;;5064523;28;19952;-80
2022/02/20 05:55:15;;;;;;;;;;;;;;;;;;5067467;28;20001;-82
2022/02/20 05:57:41;;;;;;;;;;;;;;;;;;5065133;28;19951;-82
2022/02/20 06:00:09;;;;;;;;;;;;;;;;;;5066426;28;19950;-82
2022/02/20 06:02:35;;;;;;;;;;;;;;;;;;5068056;28;19955;-86
2022/02/20 06:05:02;;;;;;;;;;;;;;;;;;5060433;28;20637;-86
2022/02/20 06:07:28;;;;;;;;;;;;;;;;;;5070251;28;19963;-82
2022/02/20 06:09:54;;;;;;;;;;;;;;;;;;5065252;28;19960;-82
2022/02/20 06:12:20;;;;;;;;;;;;;;;;;;5066153;28;19946;-82
2022/02/20 06:14:46;;;;;;;;;;;;;;;;;;5070349;28;20387;-82
2022/02/20 06:17:12;;;;;;;;;;;;;;;;;;5066967;28;19960;-82
2022/02/20 06:19:39;;;;;;;;;;;;;;;;;;5063368;28;19971;-82
2022/02/20 06:22:05;;;;;;;;;;;;;;;;;;5067120;28;19959;-83
2022/02/20 06:24:31;;;;;;;;;;;;;;;;;;5068347;28;20373;-83
2022/02/20 06:26:58;;;;;;;;;;;;;;;;;;5065554;28;20037;-82
2022/02/20 06:29:25;;;;;;;;;;;;;;;;;;5060795;28;20388;-82
2022/02/20 06:31:51;;;;;;;;;;;;;;;;;;5065581;28;19969;-82
2022/02/20 06:34:17;;;;;;;;;;;;;;;;;;5064844;28;19964;-83
2022/02/20 06:36:43;;;;;;;;;;;;;;;;;;5066376;28;19951;-82
2022/02/20 06:39:12;;;;;;;;;;;;;;;;;;5065080;28;19963;-82
2022/02/20 06:41:38;;;;;;;;;;;;;;;;;;5065069;28;19955;-81
2022/02/20 06:44:05;;;;;;;;;;;;;;;;;;5064263;28;19997;-82
2022/02/20 06:46:31;;;;;;;;;;;;;;;;;;5063397;28;19978;-82
2022/02/20 06:48:57;;;;;;;;;;;;;;;;;;5068946;28;25056;-82
2022/02/20 06:51:23;;;;;;;;;;;;;;;;;;5066839;28;19950;-80
2022/02/20 06:53:50;;;;;;;;;;;;;;;;;;5061660;28;20376;-81
2022/02/20 06:56:16;;;;;;;;;;;;;;;;;;5072403;28;19948;-81
2022/02/20 06:58:42;;;;;;;;;;;;;;;;;;5070183;28;19947;-80
2022/02/20 07:01:09;;;;;;;;;;;;;;;;;;5065781;28;19979;-83
2022/02/20 07:03:35;;;;;;;;;;;;;;;;;;5072756;28;19960;-82
2022/02/20 07:06:01;;;;;;;;;;;;;;;;;;5067144;27;19968;-83
2022/02/20 07:08:27;;;;;;;;;;;;;;;;;;5068481;28;19956;-83
2022/02/20 07:10:53;;;;;;;;;;;;;;;;;;5065812;28;20029;-82
2022/02/20 07:13:20;;;;;;;;;;;;;;;;;;5070308;28;19971;-82
2022/02/20 07:15:47;;;;;;;;;;;;;;;;;;5063454;28;19959;-82
2022/02/20 07:18:14;;;;;;;;;;;;;;;;;;5070398;28;19967;-82
2022/02/20 07:20:42;;;;;;;;;;;;;;;;;;5068720;28;19960;-82
2022/02/20 07:23:08;;;;;;;;;;;;;;;;;;5067654;28;19952;-82
2022/02/20 07:25:34;;;;;;;;;;;;;;;;;;5065021;28;20401;-83
2022/02/20 07:28:00;;;;;;;;;;;;;;;;;;5067859;28;19951;-84
2022/02/20 07:30:28;;;;;;;;;;;;;;;;;;5069222;28;19964;-84
2022/02/20 07:32:54;;;;;;;;;;;;;;;;;;5065791;28;19963;-83
2022/02/20 07:35:21;;;;;;;;;;;;;;;;;;5068013;28;20559;-85
2022/02/20 07:37:47;;;;;;;;;;;;;;;;;;5061350;28;19960;-83
2022/02/20 07:40:14;;;;;;;;;;;;;;;;;;5073577;28;19923;-81
2022/02/20 07:42:41;;;;;;;;;;;;;;;;;;5065076;28;20440;-85
2022/02/20 07:45:07;;;;;;;;;;;;;;;;;;5064072;28;20364;-87
2022/02/20 07:47:35;;;;;;;;;;;;;;;;;;5067386;28;19960;-84
2022/02/20 07:50:01;;;;;;;;;;;;;;;;;;5066576;28;19940;-87
2022/02/20 07:52:28;;;;;;;;;;;;;;;;;;5065435;28;19959;-85
2022/02/20 07:54:54;;;;;;;;;;;;;;;;;;5066929;28;19952;-87
2022/02/20 07:57:21;;;;;;;;;;;;;;;;;;5068481;28;19977;-85
2022/02/20 07:59:47;;;;;;;;;;;;;;;;;;5065724;28;19955;-82
2022/02/20 08:02:13;;;;;;;;;;;;;;;;;;5067325;28;20467;-85
2022/02/20 08:04:40;;;;;;;;;;;;;;;;;;5067021;28;19960;-86
2022/02/20 08:07:08;;;;;;;;;;;;;;;;;;5068351;28;20623;-85
2022/02/20 08:09:35;;;;;;;;;;;;;;;;;;5066080;28;19952;-84
2022/02/20 08:12:01;;;;;;;;;;;;;;;;;;5071137;28;20520;-87
2022/02/20 08:14:27;;;;;;;;;;;;;;;;;;5068839;28;19940;-86
2022/02/20 08:16:53;;;;;;;;;;;;;;;;;;5066235;28;19967;-87
2022/02/20 08:19:19;;;;;;;;;;;;;;;;;;5068238;28;19968;-87
2022/02/20 08:21:45;;;;;;;;;;;;;;;;;;5068052;28;19966;-84
2022/02/20 08:24:12;;;;;;;;;;;;;;;;;;5070963;28;19920;-85
2022/02/20 08:26:38;;;;;;;;;;;;;;;;;;5068766;28;19935;-79
2022/02/20 08:29:04;;;;;;;;;;;;;;;;;;5064888;27;20448;-86
2022/02/20 08:31:31;;;;;;;;;;;;;;;;;;5063291;28;19955;-87
2022/02/20 08:33:57;;;;;;;;;;;;;;;;;;5064415;28;19955;-87
2022/02/20 08:36:24;;;;;;;;;;;;;;;;;;5064459;27;19956;-88
2022/02/20 08:38:50;;;;;;;;;;;;;;;;;;5065686;28;20384;-85
2022/02/20 08:41:16;;;;;;;;;;;;;;;;;;5064443;28;19998;-86
2022/02/20 08:43:42;;;;;;;;;;;;;;;;;;5063340;28;19971;-85
2022/02/20 08:46:09;;;;;;;;;;;;;;;;;;5063193;28;19971;-84
2022/02/20 08:48:36;;;;;;;;;;;;;;;;;;5064052;28;19951;-87
2022/02/20 08:51:02;;;;;;;;;;;;;;;;;;5063022;28;20367;-85
2022/02/20 08:53:28;;;;;;;;;;;;;;;;;;5064377;28;19921;-88
2022/02/20 08:55:55;;;;;;;;;;;;;;;;;;5063450;28;20619;-89
2022/02/20 08:58:21;;;;;;;;;;;;;;;;;;5062491;28;19959;-87
2022/02/20 09:00:47;;;;;;;;;;;;;;;;;;5064518;28;20405;-88
2022/02/20 09:03:13;;;;;;;;;;;;;;;;;;5067498;28;19924;-89
2022/02/20 09:05:39;;;;;;;;;;;;;;;;;;5065390;28;19964;-89
2022/02/20 09:08:06;;;;;;;;;;;;;;;;;;5066130;28;19967;-87
2022/02/20 09:10:33;;;;;;;;;;;;;;;;;;5064829;28;19967;-88
2022/02/20 09:12:59;;;;;;;;;;;;;;;;;;5065056;28;19967;-88
2022/02/20 09:15:25;;;;;;;;;;;;;;;;;;5065444;27;20023;-87
2022/02/20 09:17:52;;;;;;;;;;;;;;;;;;5066728;28;19959;-87
2022/02/20 09:20:18;;;;;;;;;;;;;;;;;;5064455;28;19964;-88
2022/02/20 09:22:44;;;;;;;;;;;;;;;;;;5064926;28;20013;-86
2022/02/20 09:25:11;;;;;;;;;;;;;;;;;;5049040;28;19963;-86
2022/02/20 09:27:37;;;;;;;;;;;;;;;;;;5065098;28;19966;-87
2022/02/20 09:30:03;;;;;;;;;;;;;;;;;;5065984;28;19968;-88
2022/02/20 09:32:29;;;;;;;;;;;;;;;;;;5068078;28;19916;-87
2022/02/20 09:34:55;;;;;;;;;;;;;;;;;;5068461;28;20426;-86
2022/02/20 09:37:22;;;;;;;;;;;;;;;;;;5068721;28;19952;-85
2022/02/20 09:39:48;;;;;;;;;;;;;;;;;;5064460;28;19928;-87
2022/02/20 09:42:14;;;;;;;;;;;;;;;;;;5070367;28;19966;-88
2022/02/20 09:44:40;;;;;;;;;;;;;;;;;;5071055;28;19967;-86
2022/02/20 09:47:07;;;;;;;;;;;;;;;;;;5073575;28;20303;-87
2022/02/20 09:49:33;;;;;;;;;;;;;;;;;;5067328;28;19953;-86
2022/02/20 09:51:59;;;;;;;;;;;;;;;;;;5065070;28;19968;-86
2022/02/20 09:54:26;;;;;;;;;;;;;;;;;;5065419;28;19955;-86
2022/02/20 09:56:53;;;;;;;;;;;;;;;;;;5067190;28;19967;-85
2022/02/20 09:59:19;;;;;;;;;;;;;;;;;;5066230;28;19924;-86
2022/02/20 10:01:45;;;;;;;;;;;;;;;;;;5061670;28;20006;-86
2022/02/20 10:04:12;;;;;;;;;;;;;;;;;;5069099;28;19951;-86
2022/02/20 10:06:38;;;;;;;;;;;;;;;;;;5064597;28;19959;-82
2022/02/20 10:09:05;;;;;;;;;;;;;;;;;;5066074;28;19960;-90
2022/02/20 10:11:31;;;;;;;;;;;;;;;;;;5069524;28;19920;-86
2022/02/20 10:13:57;;;;;;;;;;;;;;;;;;5063906;28;20406;-87
2022/02/20 10:16:23;;;;;;;;;;;;;;;;;;5065909;28;19956;-88
2022/02/20 10:18:49;;;;;;;;;;;;;;;;;;5066692;28;19955;-88
2022/02/20 10:21:16;;;;;;;;;;;;;;;;;;5071036;28;19948;-87
2022/02/20 10:23:43;;;;;;;;;;;;;;;;;;5067107;28;19970;-86
2022/02/20 10:26:09;;;;;;;;;;;;;;;;;;5064516;28;19960;-87
2022/02/20 10:28:35;;;;;;;;;;;;;;;;;;5065516;28;21271;-87
2022/02/20 10:31:01;;;;;;;;;;;;;;;;;;5059786;28;19970;-87
2022/02/20 10:33:27;;;;;;;;;;;;;;;;;;5081055;28;19952;-89
2022/02/20 10:35:54;;;;;;;;;;;;;;;;;;5071436;28;19917;-79
2022/02/20 10:38:20;;;;;;;;;;;;;;;;;;5067217;28;20452;-80
2022/02/20 10:40:47;;;;;;;;;;;;;;;;;;5065487;28;19940;-79
2022/02/20 10:43:13;;;;;;;;;;;;;;;;;;5070508;28;19967;-79
2022/02/20 10:45:40;;;;;;;;;;;;;;;;;;5066063;28;19959;-79
2022/02/20 10:48:06;;;;;;;;;;;;;;;;;;5066919;28;19963;-79
2022/02/20 10:50:32;;;;;;;;;;;;;;;;;;5067939;28;19986;-79
2022/02/20 10:52:59;;;;;;;;;;;;;;;;;;5067193;28;20404;-79
2022/02/20 10:55:25;;;;;;;;;;;;;;;;;;5065570;28;19964;-79
2022/02/20 10:57:51;;;;;;;;;;;;;;;;;;5065733;28;19963;-78
2022/02/20 11:00:17;;;;;;;;;;;;;;;;;;5066672;28;20004;-79
2022/02/20 11:02:43;;;;;;;;;;;;;;;;;;5066854;28;20004;-78
2022/02/20 11:05:12;;;;;;;;;;;;;;;;;;5067704;28;20006;-79
2022/02/20 11:07:38;;;;;;;;;;;;;;;;;;5066612;28;19967;-78
2022/02/20 11:10:04;;;;;;;;;;;;;;;;;;5064117;28;19956;-79
2022/02/20 11:12:31;;;;;;;;;;;;;;;;;;5066626;28;20009;-78
2022/02/20 11:14:58;;;;;;;;;;;;;;;;;;5065596;28;20022;-80
2022/02/20 11:17:24;;;;;;;;;;;;;;;;;;5067736;28;20437;-80
2022/02/20 11:19:50;;;;;;;;;;;;;;;;;;5068030;28;19975;-79
2022/02/20 11:22:16;;;;;;;;;;;;;;;;;;5059293;28;19967;-79
2022/02/20 11:24:42;;;;;;;;;;;;;;;;;;5064022;28;19948;-81
2022/02/20 11:27:09;;;;;;;;;;;;;;;;;;5069240;28;19971;-79
2022/02/20 11:29:35;;;;;;;;;;;;;;;;;;5068591;28;19997;-78
2022/02/20 11:32:01;;;;;;;;;;;;;;;;;;5063235;28;19970;-79
2022/02/20 11:34:27;;;;;;;;;;;;;;;;;;5068691;28;19959;-78
2022/02/20 11:36:53;;;;;;;;;;;;;;;;;;5070097;28;19960;-80
2022/02/20 11:39:20;;;;;;;;;;;;;;;;;;5069262;28;19958;-79
2022/02/20 11:41:46;;;;;;;;;;;;;;;;;;5063629;28;20363;-78
2022/02/20 11:44:12;;;;;;;;;;;;;;;;;;5058250;28;19964;-79
2022/02/20 11:46:38;;;;;;;;;;;;;;;;;;5068867;28;19963;-72
2022/02/20 11:49:04;;;;;;;;;;;;;;;;;;5070940;27;20249;-79
2022/02/20 11:51:31;;;;;;;;;;;;;;;;;;5070961;28;19960;-80
2022/02/20 11:53:57;;;;;;;;;;;;;;;;;;5067768;28;19975;-79
2022/02/20 11:56:23;;;;;;;;;;;;;;;;;;5066891;28;19951;-80
2022/02/20 11:58:49;;;;;;;;;;;;;;;;;;5069862;28;19960;-79
2022/02/20 12:01:15;;;;;;;;;;;;;;;;;;5073288;28;19956;-79
2022/02/20 12:03:41;;;;;;;;;;;;;;;;;;5064001;28;19956;-77
2022/02/20 12:06:08;;;;;;;;;;;;;;;;;;5067882;28;19955;-79
2022/02/20 12:08:34;;;;;;;;;;;;;;;;;;5066741;28;19963;-79
2022/02/20 12:11:00;;;;;;;;;;;;;;;;;;5074219;28;19959;-78
2022/02/20 12:13:26;;;;;;;;;;;;;;;;;;5068414;28;19960;-80
2022/02/20 12:15:53;;;;;;;;;;;;;;;;;;5061469;28;19983;-81
2022/02/20 12:18:19;;;;;;;;;;;;;;;;;;5065108;28;19952;-81
2022/02/20 12:20:47;;;;;;;;;;;;;;;;;;5067904;28;19967;-81
2022/02/20 12:23:13;;;;;;;;;;;;;;;;;;5066109;28;19960;-81
2022/02/20 12:25:39;;;;;;;;;;;;;;;;;;5065466;28;19968;-80
2022/02/20 12:28:05;;;;;;;;;;;;;;;;;;5068094;28;19968;-80
2022/02/20 12:30:31;;;;;;;;;;;;;;;;;;5069386;28;19952;-81
2022/02/20 12:32:59;;;;;;;;;;;;;;;;;;5066959;27;19962;-82
2022/02/20 12:35:27;;;;;;;;;;;;;;;;;;5067025;28;19975;-81
2022/02/20 12:37:53;;;;;;;;;;;;;;;;;;5067646;28;19960;-80
2022/02/20 12:40:20;;;;;;;;;;;;;;;;;;5068302;28;19920;-83
2022/02/20 12:42:47;;;;;;;;;;;;;;;;;;5069988;28;20000;-80
2022/02/20 12:45:13;;;;;;;;;;;;;;;;;;5068416;28;19921;-79
2022/02/20 12:47:39;;;;;;;;;;;;;;;;;;5063291;28;20018;-79
2022/02/20 12:50:05;;;;;;;;;;;;;;;;;;5071500;28;20351;-80
2022/02/20 12:52:32;;;;;;;;;;;;;;;;;;5063266;28;19955;-80
2022/02/20 12:54:58;;;;;;;;;;;;;;;;;;5064776;28;19964;-79
2022/02/20 12:57:24;;;;;;;;;;;;;;;;;;5066904;28;20006;-79
2022/02/20 12:59:50;;;;;;;;;;;;;;;;;;5070670;28;19947;-80
2022/02/20 13:02:16;;;;;;;;;;;;;;;;;;5067397;28;19960;-79
2022/02/20 13:04:42;;;;;;;;;;;;;;;;;;5063649;28;19963;-80
2022/02/20 13:07:09;;;;;;;;;;;;;;;;;;5065009;28;20360;-79
2022/02/20 13:09:35;;;;;;;;;;;;;;;;;;5064439;28;19959;-80
2022/02/20 13:12:01;;;;;;;;;;;;;;;;;;5065362;28;19964;-80
2022/02/20 13:14:27;;;;;;;;;;;;;;;;;;5066202;28;19960;-80
2022/02/20 13:16:54;;;;;;;;;;;;;;;;;;5065623;28;19956;-79
2022/02/20 13:19:20;;;;;;;;;;;;;;;;;;5061270;28;19967;-80
2022/02/20 13:21:46;;;;;;;;;;;;;;;;;;5046648;28;19921;-79
2022/02/20 13:24:14;;;;;;;;;;;;;;;;;;5062582;28;20390;-80
2022/02/20 13:26:40;;;;;;;;;;;;;;;;;;5065001;28;19916;-79
2022/02/20 13:29:06;;;;;;;;;;;;;;;;;;5068920;28;19967;-80
2022/02/20 13:31:32;;;;;;;;;;;;;;;;;;5068759;28;19963;-80
2022/02/20 13:33:59;;;;;;;;;;;;;;;;;;5063981;28;19959;-79
2022/02/20 13:36:25;;;;;;;;;;;;;;;;;;5064897;28;19963;-80
2022/02/20 13:38:51;;;;;;;;;;;;;;;;;;5060233;28;19958;-78
2022/02/20 13:41:17;;;;;;;;;;;;;;;;;;5061380;28;19972;-78
2022/02/20 13:43:44;;;;;;;;;;;;;;;;;;5056829;28;19952;-75
2022/02/20 13:46:10;;;;;;;;;;;;;;;;;;5062556;28;20009;-79
2022/02/20 13:48:36;;;;;;;;;;;;;;;;;;5061063;28;19950;-77
2022/02/20 13:51:02;;;;;;;;;;;;;;;;;;5060625;28;19956;-75
2022/02/20 13:53:28;;;;;;;;;;;;;;;;;;5060915;28;19973;-77
2022/02/20 13:55:55;;;;;;;;;;;;;;;;;;5061771;28;20458;-78
2022/02/20 13:58:21;;;;;;;;;;;;;;;;;;5063372;28;19955;-77
2022/02/20 14:00:47;;;;;;;;;;;;;;;;;;5062830;28;19963;-78
2022/02/20 14:03:13;;;;;;;;;;;;;;;;;;5063454;28;19939;-89
2022/02/20 14:05:42;;;;;;;;;;;;;;;;;;5064925;28;20380;-87
2022/02/20 14:08:10;;;;;;;;;;;;;;;;;;5062132;28;20569;-86
2022/02/20 14:10:36;;;;;;;;;;;;;;;;;;5068826;28;20051;-89
2022/02/20 14:13:02;;;;;;;;;;;;;;;;;;5067556;28;19960;-88
2022/02/20 14:15:29;;;;;;;;;;;;;;;;;;5068453;28;19966;-87
2022/02/20 14:17:56;;;;;;;;;;;;;;;;;;5067113;28;19956;-85
2022/02/20 14:20:22;;;;;;;;;;;;;;;;;;5063229;28;19959;-87
2022/02/20 14:22:48;;;;;;;;;;;;;;;;;;5066498;28;19920;-86
2022/02/20 14:25:18;;;;;;;;;;;;;;;;;;5068181;28;19928;-84
2022/02/20 14:27:44;;;;;;;;;;;;;;;;;;5068858;28;19935;-83
2022/02/20 14:30:10;;;;;;;;;;;;;;;;;;5072113;28;19924;-86
2022/02/20 14:32:36;;;;;;;;;;;;;;;;;;5068239;28;19959;-85
2022/02/20 14:35:05;;;;;;;;;;;;;;;;;;5067175;28;19952;-85
2022/02/20 14:37:31;;;;;;;;;;;;;;;;;;5049684;28;19964;-85
2022/02/20 14:39:57;;;;;;;;;;;;;;;;;;5072306;28;19924;-83
2022/02/20 14:42:23;;;;;;;;;;;;;;;;;;5069179;28;19955;-84
2022/02/20 14:44:49;;;;;;;;;;;;;;;;;;5073055;28;19951;-83
2022/02/20 14:47:15;;;;;;;;;;;;;;;;;;5072641;28;20006;-82
2022/02/20 14:49:42;;;;;;;;;;;;;;;;;;5070270;28;19920;-82
2022/02/20 14:52:08;;;;;;;;;;;;;;;;;;5070515;28;19955;-81
2022/02/20 14:54:34;;;;;;;;;;;;;;;;;;5068561;28;19960;-81
2022/02/20 14:57:00;;;;;;;;;;;;;;;;;;5071512;28;19954;-83
2022/02/20 14:59:32;;;;;;;;;;;;;;;;;;5073587;28;19956;-82
2022/02/20 15:01:58;;;;;;;;;;;;;;;;;;5068727;28;19952;-82
2022/02/20 15:04:24;;;;;;;;;;;;;;;;;;5071134;28;19966;-82
2022/02/20 15:06:50;;;;;;;;;;;;;;;;;;5066961;28;20441;-82
2022/02/20 15:09:16;;;;;;;;;;;;;;;;;;5068545;28;19968;-82
2022/02/20 15:11:45;;;;;;;;;;;;;;;;;;5066757;28;20429;-82
2022/02/20 15:14:11;;;;;;;;;;;;;;;;;;5079321;28;19921;-87
2022/02/20 15:16:39;;;;;;;;;;;;;;;;;;5075738;27;19917;-85
2022/02/20 15:19:07;;;;;;;;;;;;;;;;;;5077280;28;21285;-87
2022/02/20 15:21:33;;;;;;;;;;;;;;;;;;5077348;28;19946;-86
2022/02/20 15:23:59;;;;;;;;;;;;;;;;;;5077713;28;20296;-86
2022/02/20 15:26:26;;;;;;;;;;;;;;;;;;5078764;28;19924;-88
2022/02/20 15:28:52;;;;;;;;;;;;;;;;;;5076551;28;19932;-86
2022/02/20 15:31:18;;;;;;;;;;;;;;;;;;5080082;28;21482;-88
2022/02/20 15:33:44;;;;;;;;;;;;;;;;;;5059919;28;19921;-85
2022/02/20 15:36:11;;;;;;;;;;;;;;;;;;5076194;28;19932;-85
2022/02/20 15:38:37;;;;;;;;;;;;;;;;;;5075324;28;20002;-85
2022/02/20 15:41:03;;;;;;;;;;;;;;;;;;5067232;28;20770;-85
2022/02/20 15:43:29;;;;;;;;;;;;;;;;;;5069727;28;20621;-85
2022/02/20 15:45:55;;;;;;;;;;;;;;;;;;5067742;28;19973;-83
2022/02/20 15:48:23;;;;;;;;;;;;;;;;;;5066614;28;20476;-84
2022/02/20 15:50:53;;;;;;;;;;;;;;;;;;5067219;28;19963;-84
2022/02/20 15:53:20;;;;;;;;;;;;;;;;;;5067690;28;20417;-83
2022/02/20 15:55:47;;;;;;;;;;;;;;;;;;5070898;28;19947;-86
2022/02/20 15:58:16;;;;;;;;;;;;;;;;;;5068304;28;20008;-81
2022/02/20 16:00:42;;;;;;;;;;;;;;;;;;5068259;28;19944;-77
2022/02/20 16:03:08;;;;;;;;;;;;;;;;;;5067589;28;20316;-77
2022/02/20 16:05:35;;;;;;;;;;;;;;;;;;5067542;28;19917;-75
2022/02/20 16:08:01;;;;;;;;;;;;;;;;;;5076827;28;19960;-78
2022/02/20 16:10:27;;;;;;;;;;;;;;;;;;5067320;28;19952;-77
2022/02/20 16:12:53;;;;;;;;;;;;;;;;;;5062246;28;19960;-78
2022/02/20 16:15:19;;;;;;;;;;;;;;;;;;5060939;28;19968;-77
2022/02/20 16:17:46;;;;;;;;;;;;;;;;;;5064521;28;19971;-77
2022/02/20 16:20:12;;;;;;;;;;;;;;;;;;5070247;28;19960;-77
2022/02/20 16:22:39;;;;;;;;;;;;;;;;;;5068616;28;19944;-79
2022/02/20 16:25:05;;;;;;;;;;;;;;;;;;5067340;28;20365;-77
2022/02/20 16:27:31;;;;;;;;;;;;;;;;;;5063845;28;19976;-74
2022/02/20 16:29:58;;;;;;;;;;;;;;;;;;5063016;28;19959;-76
2022/02/20 16:32:24;;;;;;;;;;;;;;;;;;5061073;28;20371;-77
2022/02/20 16:34:50;;;;;;;;;;;;;;;;;;5061317;28;19960;-77
2022/02/20 16:37:17;;;;;;;;;;;;;;;;;;5061760;28;19967;-76
2022/02/20 16:39:43;;;;;;;;;;;;;;;;;;5059723;28;19952;-78